createdAt,value
2022-09-28T00:01:25.671Z,100.00
2022-09-28T00:03:59.039Z,100.00
2022-09-28T00:06:31.342Z,100.00
2022-09-28T00:09:04.171Z,100.00
2022-09-28T00:11:36.261Z,100.00
2022-09-28T00:14:08.436Z,100.00
2022-09-28T00:16:43.746Z,100.00
2022-09-28T00:19:16.299Z,100.00
2022-09-28T00:21:48.404Z,100.00
2022-09-28T00:24:24.047Z,100.00
2022-09-28T00:27:01.510Z,100.00
2022-09-28T00:29:36.033Z,100.00
2022-09-28T00:32:12.320Z,100.00
2022-09-28T00:34:46.075Z,100.00
2022-09-28T00:37:19.737Z,100.00
2022-09-28T00:39:51.751Z,100.00
2022-09-28T00:42:25.978Z,100.00
2022-09-28T00:44:59.413Z,100.00
2022-09-28T00:47:51.024Z,100.00
2022-09-28T00:50:35.807Z,100.00
2022-09-28T00:53:20.545Z,100.00
2022-09-28T00:56:00.562Z,100.00
2022-09-28T00:58:38.424Z,100.00
2022-09-28T01:01:10.515Z,100.00
2022-09-28T01:03:45.492Z,100.00
2022-09-28T01:06:24.171Z,100.00
2022-09-28T01:08:59.178Z,100.00
2022-09-28T01:11:33.740Z,100.00
2022-09-28T01:14:09.753Z,100.00
2022-09-28T01:16:53.490Z,100.00
2022-09-28T01:20:13.042Z,100.00
2022-09-28T01:23:25.530Z,100.00
2022-09-28T01:26:22.179Z,100.00
2022-09-28T01:29:19.785Z,100.00
2022-09-28T01:32:36.689Z,100.00
2022-09-28T01:35:35.860Z,100.00
2022-09-28T01:38:25.489Z,100.00
2022-09-28T01:40:59.931Z,100.00
2022-09-28T01:43:37.964Z,100.00
2022-09-28T01:46:27.840Z,100.00
2022-09-28T01:49:08.961Z,100.00
2022-09-28T01:52:02.864Z,100.00
2022-09-28T01:54:52.921Z,100.00
2022-09-28T01:57:36.021Z,100.00
2022-09-28T02:00:11.998Z,100.00
2022-09-28T02:02:56.272Z,100.00
2022-09-28T02:05:33.542Z,100.00
2022-09-28T02:08:33.727Z,100.00
2022-09-28T02:11:09.695Z,100.00
2022-09-28T02:13:50.227Z,100.00
2022-09-28T02:16:42.743Z,100.00
2022-09-28T02:19:41.433Z,100.00
2022-09-28T02:22:37.347Z,100.00
2022-09-28T02:25:21.988Z,100.00
2022-09-28T02:28:02.542Z,100.00
2022-09-28T02:30:39.674Z,100.00
2022-09-28T02:33:29.658Z,100.00
2022-09-28T02:36:03.585Z,100.00
2022-09-28T02:38:37.282Z,100.00
2022-09-28T02:41:26.881Z,100.00
2022-09-28T02:44:36.406Z,100.00
2022-09-28T02:47:22.538Z,100.00
2022-09-28T02:50:13.229Z,100.00
2022-09-28T02:53:28.200Z,100.00
2022-09-28T02:56:39.507Z,100.00
2022-09-28T02:59:31.101Z,100.00
2022-09-28T03:02:41.270Z,100.00
2022-09-28T03:05:40.255Z,100.00
2022-09-28T03:08:42.331Z,100.00
2022-09-28T03:11:30.593Z,100.00
2022-09-28T03:14:04.374Z,100.00
2022-09-28T03:16:36.371Z,100.00
2022-09-28T03:19:08.288Z,100.00
2022-09-28T03:21:40.450Z,100.00
2022-09-28T03:24:12.377Z,100.00
2022-09-28T03:26:44.331Z,100.00
2022-09-28T03:29:16.462Z,100.00
2022-09-28T03:31:49.233Z,100.00
2022-09-28T03:34:21.249Z,100.00
2022-09-28T03:36:53.154Z,100.00
2022-09-28T03:39:25.765Z,100.00
2022-09-28T03:42:00.443Z,100.00
2022-09-28T03:44:32.614Z,100.00
2022-09-28T03:47:04.531Z,100.00
2022-09-28T03:49:37.085Z,100.00
2022-09-28T03:52:09.008Z,100.00
2022-09-28T03:54:42.294Z,100.00
2022-09-28T03:57:16.567Z,100.00
2022-09-28T03:59:48.472Z,100.00
2022-09-28T04:02:20.421Z,100.00
2022-09-28T04:04:52.507Z,100.00
2022-09-28T04:07:26.962Z,100.00
2022-09-28T04:10:02.225Z,100.00
2022-09-28T04:12:34.144Z,100.00
2022-09-28T04:15:06.739Z,100.00
2022-09-28T04:17:40.275Z,100.00
2022-09-28T04:20:12.281Z,100.00
2022-09-28T04:22:44.506Z,100.00
2022-09-28T04:25:16.513Z,100.00
2022-09-28T04:28:08.358Z,100.00
2022-09-28T04:30:40.251Z,100.00
2022-09-28T04:33:12.178Z,100.00
2022-09-28T04:35:44.194Z,100.00
2022-09-28T04:38:23.483Z,100.00
2022-09-28T04:41:07.964Z,100.00
2022-09-28T04:43:39.887Z,100.00
2022-09-28T04:46:12.102Z,100.00
2022-09-28T04:48:44.188Z,100.00
2022-09-28T04:51:16.234Z,100.00
2022-09-28T04:53:48.250Z,100.00
2022-09-28T04:56:20.204Z,100.00
2022-09-28T04:58:53.004Z,100.00
2022-09-28T05:01:25.783Z,100.00
2022-09-28T05:03:57.845Z,100.00
2022-09-28T05:06:30.823Z,100.00
2022-09-28T05:09:02.797Z,100.00
2022-09-28T05:11:34.734Z,100.00
2022-09-28T05:14:06.696Z,100.00
2022-09-28T05:16:38.685Z,100.00
2022-09-28T05:19:11.728Z,100.00
2022-09-28T05:21:45.852Z,100.00
2022-09-28T05:24:17.809Z,100.00
2022-09-28T05:26:49.854Z,100.00
2022-09-28T05:29:21.773Z,100.00
2022-09-28T05:31:53.785Z,100.00
2022-09-28T05:34:25.886Z,100.00
2022-09-28T05:36:57.826Z,100.00
2022-09-28T05:39:29.798Z,100.00
2022-09-28T05:42:01.792Z,100.00
2022-09-28T05:44:33.795Z,100.00
2022-09-28T05:47:05.924Z,100.00
2022-09-28T05:49:37.855Z,100.00
2022-09-28T05:52:09.751Z,100.00
2022-09-28T05:54:41.681Z,100.00
2022-09-28T05:57:14.893Z,100.00
2022-09-28T05:59:46.966Z,100.00
2022-09-28T06:02:18.933Z,100.00
2022-09-28T06:04:51.320Z,100.00
2022-09-28T06:07:23.982Z,100.00
2022-09-28T06:09:56.026Z,100.00
2022-09-28T06:12:28.038Z,100.00
2022-09-28T06:15:01.295Z,100.00
2022-09-28T06:17:33.399Z,100.00
2022-09-28T06:20:06.073Z,100.00
2022-09-28T06:22:38.908Z,100.00
2022-09-28T06:25:11.033Z,100.00
2022-09-28T06:27:43.217Z,100.00
2022-09-28T06:30:15.165Z,100.00
2022-09-28T06:32:47.099Z,100.00
2022-09-28T06:35:19.060Z,100.00
2022-09-28T06:37:51.379Z,100.00
2022-09-28T06:40:24.104Z,100.00
2022-09-28T06:43:10.705Z,100.00
2022-09-28T06:45:43.593Z,100.00
2022-09-28T06:48:16.592Z,100.00
2022-09-28T06:50:50.920Z,100.00
2022-09-28T06:53:23.782Z,100.00
2022-09-28T06:55:58.953Z,100.00
2022-09-28T06:58:32.377Z,100.00
2022-09-28T07:01:04.621Z,100.00
2022-09-28T07:03:36.789Z,100.00
2022-09-28T07:06:12.500Z,100.00
2022-09-28T07:08:47.381Z,100.00
2022-09-28T07:11:27.018Z,100.00
2022-09-28T07:13:58.946Z,100.00
2022-09-28T07:16:51.929Z,100.00
2022-09-28T07:19:22.833Z,100.00
2022-09-28T07:22:04.241Z,100.00
2022-09-28T07:24:37.261Z,100.00
2022-09-28T07:27:09.657Z,100.00
2022-09-28T07:29:41.667Z,100.00
2022-09-28T07:32:13.625Z,100.00
2022-09-28T07:34:45.700Z,100.00
2022-09-28T07:37:19.019Z,100.00
2022-09-28T07:40:09.375Z,100.00
2022-09-28T07:42:41.702Z,100.00
2022-09-28T07:45:13.743Z,100.00
2022-09-28T07:47:45.954Z,100.00
2022-09-28T07:50:18.212Z,100.00
2022-09-28T07:52:50.238Z,100.00
2022-09-28T07:55:22.165Z,100.00
2022-09-28T07:58:01.773Z,100.00
2022-09-28T08:00:34.354Z,99.73
2022-09-28T08:03:06.449Z,99.31
2022-09-28T08:05:39.194Z,99.81
2022-09-28T08:08:11.351Z,98.65
2022-09-28T08:10:47.163Z,96.39
2022-09-28T08:13:22.249Z,97.11
2022-09-28T08:15:55.778Z,95.51
2022-09-28T08:18:27.742Z,91.93
2022-09-28T08:21:18.015Z,92.91
2022-09-28T08:23:50.739Z,91.97
2022-09-28T08:26:22.685Z,92.41
2022-09-28T08:28:54.586Z,92.53
2022-09-28T08:31:26.503Z,91.90
2022-09-28T08:33:58.407Z,92.46
2022-09-28T08:36:30.348Z,93.30
2022-09-28T08:39:02.374Z,93.04
2022-09-28T08:42:10.635Z,94.42
2022-09-28T08:44:57.206Z,93.54
2022-09-28T08:48:02.938Z,93.68
2022-09-28T08:50:48.492Z,93.24
2022-09-28T08:53:42.379Z,93.48
2022-09-28T08:56:41.653Z,94.18
2022-09-28T08:59:22.253Z,93.10
2022-09-28T09:02:06.125Z,94.12
2022-09-28T09:04:38.129Z,94.18
2022-09-28T09:07:28.446Z,94.86
2022-09-28T09:10:28.693Z,95.63
2022-09-28T09:13:27.975Z,95.24
2022-09-28T09:16:45.669Z,92.68
2022-09-28T09:20:18.837Z,92.31
2022-09-28T09:23:00.984Z,93.39
2022-09-28T09:25:49.793Z,92.61
2022-09-28T09:28:52.493Z,93.29
2022-09-28T09:34:26.600Z,90.78
2022-09-28T09:37:24.259Z,91.10
2022-09-28T09:40:56.588Z,91.40
2022-09-28T09:44:16.605Z,90.84
2022-09-28T09:47:04.697Z,90.65
2022-09-28T09:50:05.490Z,90.31
2022-09-28T09:52:55.297Z,90.68
2022-09-28T09:55:37.230Z,89.86
2022-09-28T09:58:22.754Z,90.49
2022-09-28T10:01:01.822Z,90.60
2022-09-28T10:03:37.114Z,89.80
2022-09-28T10:06:26.541Z,89.24
2022-09-28T10:09:08.879Z,89.31
2022-09-28T10:11:45.811Z,88.07
2022-09-28T10:14:24.181Z,89.31
2022-09-28T10:16:57.863Z,85.44
2022-09-28T10:19:35.057Z,86.88
2022-09-28T10:22:07.700Z,85.90
2022-09-28T10:24:46.404Z,85.77
2022-09-28T10:27:24.179Z,80.63
2022-09-28T10:30:08.264Z,79.53
2022-09-28T10:32:46.606Z,73.78
2022-09-28T10:35:18.667Z,67.15
2022-09-28T10:38:14.278Z,60.91
2022-09-28T10:41:01.926Z,63.55
2022-09-28T10:43:39.576Z,53.63
2022-09-28T10:46:14.279Z,49.77
2022-09-28T10:48:54.681Z,46.18
2022-09-28T10:51:56.302Z,44.42
2022-09-28T10:54:31.427Z,42.01
2022-09-28T10:57:03.692Z,43.71
2022-09-28T10:59:40.902Z,41.22
2022-09-28T11:02:27.273Z,44.83
2022-09-28T11:05:03.119Z,50.57
2022-09-28T11:07:46.661Z,54.76
2022-09-28T11:10:25.183Z,57.02
2022-09-28T11:12:58.109Z,54.59
2022-09-28T11:15:33.283Z,55.18
2022-09-28T11:18:32.571Z,55.01
2022-09-28T11:21:12.531Z,55.05
2022-09-28T11:24:07.065Z,56.23
2022-09-28T11:26:43.751Z,52.68
2022-09-28T11:29:41.972Z,52.66
2022-09-28T11:32:16.017Z,47.15
2022-09-28T11:35:05.235Z,45.93
2022-09-28T11:38:23.720Z,44.49
2022-09-28T11:41:20.358Z,44.86
2022-09-28T11:44:07.000Z,41.93
2022-09-28T11:47:09.786Z,35.82
2022-09-28T11:49:52.791Z,35.54
2022-09-28T11:52:45.586Z,33.35
2022-09-28T11:55:34.463Z,35.04
2022-09-28T11:58:31.024Z,39.01
2022-09-28T12:01:35.593Z,41.20
2022-09-28T12:04:18.080Z,45.15
2022-09-28T12:07:12.724Z,47.70
2022-09-28T12:09:55.385Z,48.72
2022-09-28T12:13:01.305Z,49.87
2022-09-28T12:19:18.723Z,55.57
2022-09-28T12:22:01.212Z,58.96
2022-09-28T12:25:00.068Z,55.85
2022-09-28T12:27:52.969Z,56.43
2022-09-28T12:30:25.864Z,53.18
2022-09-28T12:33:16.035Z,53.58
2022-09-28T12:36:28.545Z,56.13
2022-09-28T12:39:53.413Z,63.79
2022-09-28T12:43:10.626Z,62.46
2022-09-28T12:46:17.282Z,65.60
2022-09-28T12:50:13.770Z,66.02
2022-09-28T12:52:25.002Z,66.73
2022-09-28T12:55:41.169Z,68.15
2022-09-28T12:59:06.275Z,70.48
2022-09-28T13:02:14.414Z,68.98
2022-09-28T13:05:23.978Z,69.66
2022-09-28T13:08:10.954Z,68.31
2022-09-28T13:10:51.593Z,67.17
2022-09-28T13:13:56.357Z,68.12
2022-09-28T13:16:59.780Z,69.34
2022-09-28T13:19:58.090Z,69.09
2022-09-28T13:22:44.482Z,70.10
2022-09-28T13:25:20.830Z,67.93
2022-09-28T13:28:05.231Z,66.79
2022-09-28T13:30:40.403Z,65.06
2022-09-28T13:33:44.568Z,65.05
2022-09-28T13:36:47.872Z,62.33
2022-09-28T13:39:46.896Z,62.03
2022-09-28T13:42:56.397Z,62.46
2022-09-28T13:45:53.520Z,60.51
2022-09-28T13:48:50.648Z,62.09
2022-09-28T13:52:06.765Z,59.44
2022-09-28T13:55:03.783Z,59.79
2022-09-28T13:57:54.262Z,58.83
2022-09-28T14:00:51.393Z,58.57
2022-09-28T14:04:06.785Z,59.24
2022-09-28T14:06:48.093Z,59.69
2022-09-28T14:09:47.822Z,59.28
2022-09-28T14:12:50.327Z,58.84
2022-09-28T14:15:37.658Z,61.53
2022-09-28T14:18:33.236Z,62.91
2022-09-28T14:21:20.623Z,62.09
2022-09-28T14:24:08.107Z,63.95
2022-09-28T14:27:26.754Z,66.95
2022-09-28T14:30:24.294Z,65.21
2022-09-28T14:32:59.840Z,65.52
2022-09-28T14:35:34.293Z,65.75
2022-09-28T14:38:37.176Z,67.11
2022-09-28T14:41:33.878Z,68.31
2022-09-28T14:44:18.892Z,68.75
2022-09-28T14:47:44.260Z,67.45
2022-09-28T14:50:26.072Z,66.49
2022-09-28T14:53:06.587Z,66.79
2022-09-28T14:55:50.300Z,65.27
2022-09-28T14:58:27.590Z,65.80
2022-09-28T15:01:12.944Z,65.55
2022-09-28T15:03:48.894Z,64.60
2022-09-28T15:06:24.165Z,67.76
2022-09-28T15:08:56.225Z,67.58
2022-09-28T15:11:28.166Z,67.15
2022-09-28T15:14:08.351Z,66.91
2022-09-28T15:16:40.405Z,65.71
2022-09-28T15:20:08.916Z,64.56
2022-09-28T15:22:49.649Z,65.63
2022-09-28T15:25:25.023Z,66.18
2022-09-28T15:28:02.449Z,66.05
2022-09-28T15:30:36.542Z,66.00
2022-09-28T15:33:49.052Z,65.79
2022-09-28T15:36:26.766Z,65.95
2022-09-28T15:39:30.142Z,65.82
2022-09-28T15:42:02.597Z,66.78
2022-09-28T15:44:38.622Z,66.92
2022-09-28T15:47:26.830Z,66.67
2022-09-28T15:50:19.575Z,66.76
2022-09-28T15:53:01.189Z,68.31
2022-09-28T15:55:40.044Z,70.00
2022-09-28T15:58:21.105Z,70.69
2022-09-28T16:01:36.741Z,70.97
2022-09-28T16:04:48.208Z,70.50
2022-09-28T16:07:23.398Z,71.12
2022-09-28T16:10:25.647Z,70.05
2022-09-28T16:13:14.437Z,71.85
2022-09-28T16:15:46.486Z,73.04
2022-09-28T16:18:22.261Z,73.61
2022-09-28T16:21:45.606Z,73.01
2022-09-28T16:24:30.560Z,74.15
2022-09-28T16:27:16.404Z,74.36
2022-09-28T16:30:16.738Z,74.37
2022-09-28T16:33:08.584Z,73.69
2022-09-28T16:35:40.416Z,74.01
2022-09-28T16:38:18.261Z,73.45
2022-09-28T16:40:54.952Z,74.58
2022-09-28T16:43:30.318Z,74.43
2022-09-28T16:46:14.470Z,74.87
2022-09-28T16:48:51.027Z,75.70
2022-09-28T16:51:23.697Z,75.79
2022-09-28T16:54:18.989Z,75.67
2022-09-28T16:56:51.057Z,76.74
2022-09-28T16:59:23.102Z,77.46
2022-09-28T17:01:56.819Z,78.13
2022-09-28T17:04:28.771Z,79.15
2022-09-28T17:07:00.853Z,79.46
2022-09-28T17:09:33.222Z,80.32
2022-09-28T17:12:23.028Z,80.82
2022-09-28T17:14:55.382Z,81.22
2022-09-28T17:17:30.002Z,82.03
2022-09-28T17:20:13.231Z,82.27
2022-09-28T17:22:45.289Z,83.04
2022-09-28T17:25:18.127Z,83.93
2022-09-28T17:27:51.089Z,84.52
2022-09-28T17:30:23.745Z,84.47
2022-09-28T17:33:00.095Z,85.53
2022-09-28T17:35:34.160Z,86.19
2022-09-28T17:38:15.403Z,87.04
2022-09-28T17:40:48.307Z,87.58
2022-09-28T17:43:22.246Z,87.95
2022-09-28T17:45:54.231Z,88.69
2022-09-28T17:48:27.268Z,88.96
2022-09-28T17:50:59.957Z,89.05
2022-09-28T17:53:31.927Z,89.28
2022-09-28T17:56:03.889Z,89.48
2022-09-28T17:58:36.242Z,89.57
2022-09-28T18:01:09.326Z,89.91
2022-09-28T18:03:42.218Z,90.25
2022-09-28T18:06:20.089Z,90.41
2022-09-28T18:08:52.096Z,90.17
2022-09-28T18:11:24.074Z,90.30
2022-09-28T18:13:56.030Z,90.66
2022-09-28T18:16:28.932Z,90.95
2022-09-28T18:19:01.113Z,90.78
2022-09-28T18:21:33.566Z,90.74
2022-09-28T18:24:05.744Z,90.88
2022-09-28T18:26:37.874Z,91.10
2022-09-28T18:29:10.840Z,91.22
2022-09-28T18:31:42.885Z,91.18
2022-09-28T18:34:15.717Z,90.88
2022-09-28T18:36:47.880Z,91.25
2022-09-28T18:39:19.996Z,91.33
2022-09-28T18:41:52.279Z,91.47
2022-09-28T18:44:24.484Z,91.40
2022-09-28T18:46:56.482Z,91.50
2022-09-28T18:49:31.195Z,91.37
2022-09-28T18:52:03.682Z,91.88
2022-09-28T18:54:35.718Z,92.28
2022-09-28T18:57:07.748Z,92.53
2022-09-28T18:59:39.682Z,92.33
2022-09-28T19:02:12.085Z,92.49
2022-09-28T19:04:44.279Z,93.08
2022-09-28T19:07:17.299Z,93.07
2022-09-28T19:09:50.237Z,92.84
2022-09-28T19:12:22.362Z,92.73
2022-09-28T19:14:54.374Z,92.53
2022-09-28T19:17:26.488Z,92.72
2022-09-28T19:19:58.905Z,92.31
2022-09-28T19:22:31.454Z,92.77
2022-09-28T19:25:03.462Z,92.54
2022-09-28T19:27:35.826Z,92.76
2022-09-28T19:30:08.815Z,92.65
2022-09-28T19:32:42.123Z,92.67
2022-09-28T19:35:14.129Z,93.00
2022-09-28T19:37:46.886Z,92.82
2022-09-28T19:40:18.896Z,92.59
2022-09-28T19:42:50.897Z,93.20
2022-09-28T19:45:23.702Z,92.97
2022-09-28T19:47:59.548Z,93.51
2022-09-28T19:50:32.426Z,93.63
2022-09-28T19:53:07.281Z,93.81
2022-09-28T19:55:40.923Z,93.61
2022-09-28T19:58:12.889Z,93.45
2022-09-28T20:00:44.815Z,93.60
2022-09-28T20:03:18.826Z,94.06
2022-09-28T20:05:57.637Z,93.82
2022-09-28T20:08:33.055Z,94.18
2022-09-28T20:11:05.544Z,93.72
2022-09-28T20:13:37.861Z,93.47
2022-09-28T20:16:14.322Z,93.51
2022-09-28T20:18:50.389Z,93.89
2022-09-28T20:21:26.774Z,93.93
2022-09-28T20:23:59.098Z,94.20
2022-09-28T20:26:37.370Z,93.90
2022-09-28T20:29:09.893Z,94.12
2022-09-28T20:31:42.795Z,94.27
2022-09-28T20:34:15.006Z,94.52
2022-09-28T20:36:46.944Z,94.33
2022-09-28T20:39:19.123Z,94.34
2022-09-28T20:41:51.154Z,94.18
2022-09-28T20:44:23.196Z,94.35
2022-09-28T20:46:56.741Z,94.48
2022-09-28T20:49:28.817Z,94.70
2022-09-28T20:52:00.835Z,94.66
2022-09-28T20:54:32.840Z,95.04
2022-09-28T20:57:17.553Z,95.60
2022-09-28T20:59:54.583Z,95.22
2022-09-28T21:02:26.962Z,95.95
2022-09-28T21:04:58.982Z,95.92
2022-09-28T21:07:31.141Z,96.01
2022-09-28T21:10:03.153Z,96.35
2022-09-28T21:12:35.046Z,95.96
2022-09-28T21:15:07.664Z,95.92
2022-09-28T21:17:39.624Z,96.58
2022-09-28T21:20:11.567Z,96.40
2022-09-28T21:22:43.531Z,95.83
2022-09-28T21:25:15.549Z,95.86
2022-09-28T21:27:47.967Z,95.34
2022-09-28T21:30:20.180Z,95.81
2022-09-28T21:32:52.238Z,95.66
2022-09-28T21:35:24.401Z,95.84
2022-09-28T21:37:56.366Z,96.09
2022-09-28T21:40:28.334Z,95.96
2022-09-28T21:43:00.430Z,96.05
2022-09-28T21:45:32.899Z,96.02
2022-09-28T21:48:05.154Z,95.79
2022-09-28T21:50:37.107Z,95.44
2022-09-28T21:53:09.020Z,95.95
2022-09-28T21:55:40.942Z,95.92
2022-09-28T21:58:12.903Z,95.87
2022-09-28T22:00:44.831Z,96.19
2022-09-28T22:03:17.257Z,96.18
2022-09-28T22:05:52.232Z,96.27
2022-09-28T22:08:25.371Z,96.29
2022-09-28T22:11:12.108Z,95.63
2022-09-28T22:13:53.634Z,96.49
2022-09-28T22:16:29.348Z,96.64
2022-09-28T22:19:01.664Z,97.19
2022-09-28T22:21:35.100Z,96.73
2022-09-28T22:24:07.849Z,97.06
2022-09-28T22:26:40.543Z,96.52
2022-09-28T22:29:12.538Z,96.49
2022-09-28T22:31:44.510Z,96.07
2022-09-28T22:34:16.501Z,96.57
2022-09-28T22:36:48.439Z,96.57
2022-09-28T22:39:20.359Z,96.50
2022-09-28T22:41:52.653Z,95.83
2022-09-28T22:44:25.528Z,96.36
2022-09-28T22:46:57.529Z,96.14
2022-09-28T22:49:29.922Z,96.09
2022-09-28T22:52:02.103Z,95.98
2022-09-28T22:54:34.112Z,95.65
2022-09-28T22:57:06.311Z,95.91
2022-09-28T22:59:38.361Z,96.00
2022-09-28T23:02:10.305Z,95.55
2022-09-28T23:04:42.303Z,95.38
2022-09-28T23:07:14.244Z,94.84
2022-09-28T23:09:46.155Z,94.95
2022-09-28T23:12:18.065Z,94.80
2022-09-28T23:14:49.967Z,94.96
2022-09-28T23:17:21.992Z,94.81
2022-09-28T23:19:53.964Z,93.61
2022-09-28T23:22:27.450Z,94.14
2022-09-28T23:24:59.943Z,94.65
2022-09-28T23:27:31.978Z,94.33
2022-09-28T23:30:04.174Z,94.64
2022-09-28T23:32:36.217Z,94.50
2022-09-28T23:35:09.110Z,95.35
2022-09-28T23:37:41.078Z,95.31
2022-09-28T23:40:13.097Z,95.15
2022-09-28T23:42:45.144Z,95.28
2022-09-28T23:45:17.042Z,95.53
2022-09-28T23:47:49.112Z,95.99
2022-09-28T23:50:20.997Z,96.14
2022-09-28T23:52:53.111Z,96.64
2022-09-28T23:55:25.046Z,97.00
2022-09-28T23:57:58.233Z,96.56
